Time    Temperature        Humidity
2020-12-26 01:01:03    30    40
2020-12-26 01:01:13    31    40.5
2020-12-26 01:01:18    31    40.3
2020-12-26 01:01:21    30    41.3

...

2020-12-26 02:01:03    30    40
2020-12-26 02:01:13    31    40.5
2020-12-26 02:01:18    31    40.3
2020-12-26 02:01:21    30    41.3

 

이런씩으로 온/습도 값을 많이 받고 있습니다.
(디바이스의 전원이 꺼져 있는 경우는 값이 누락됩니다.)

여기서 하고 싶은것은
특정일 기간 동안

5초 간격/10초 간격/1분 간격/5분 간격/10분 간격/1시간 간격으로 조회를 하고 싶습니다.
Group by로 묶어버리니깐 최대,최소,평균으로 나와버리는데...

고수님들 방법 좀 알려주세요..

No. Subject Author Date Views
Notice SQL강좌: 챗GPT와 함께 배우는 SQL Server 무료 강좌 목차와 소개 (2023년 9월 업데이트) 코난(김대우) 2023.08.18 23661
Notice Python 무료 강좌 - 기초, 중급, 머신러닝(2023년 6월 업데이트) 코난(김대우) 2021.01.01 12430
10680 DB 락 질문입니다. [2] 희망나라 2021.01.07 298
10679 HAVING절에 ANY나SOME이나ALL을 쓸수가있나요 ? [1] 흑곰 2021.01.04 178
10678 파라미터 조건에 따라서 조인문을 분깃해주고 싶은데요... [1] 아싸라비아콜롬비아 2021.01.02 268
» [질문] 쿼리 작성 중인데..막히는 부분이 있습니다..도움 좀 주세요.. BusyRun 2020.12.26 548
10676 외부 조인 연산자 ("*=" 또는 "=*") 문의 [1] 완전초짜 2020.12.25 180
10675 view를 주기적으로 recompile해야 정상작동합니다. [1] 꼬까 2020.12.16 367
10674 쿼리 질문 드립니다. [1] 청주아범 2020.12.14 210
10673 LINKED DB, WHERE 절 문의 드립니다.. 사히스 2020.12.09 632
10672 mssql sa비밀번호가 계속 바뀌는 문제에 대한 질문입니다. [1] qlalfdlqslek 2020.12.08 274
10671 검색 데이터 중 없는 데이터 찾기(?) 도와주실분 ㅠ [2] yong s ql을 잘하고싶다 2020.12.08 307
10670 IP 대역 비교하는 방법 [1] Mikha 2020.12.04 610
10669 SQL Server 인증을 통합 인증으로 [1] Mikha 2020.11.26 306
10668 SQL 2000버전을 2016으로 버전업할때 비밀번호 컬럼의 값 변경에 대해서 iticdl 2020.11.20 1620
10667 sql 2014 쿼리 문의 입니다. [1] 민성 2020.11.18 1497
10666 쿼리문 질문 드립니다. [1] One이 2020.11.18 393
10665 SQL2000 -> SQL2019 질문드립니다 [5] 구티 2020.11.17 830
10664 혹시 오라클에서 mssql로 변환할때요 [1] 아싸라비아콜롬비아 2020.11.16 388
10663 sql 쿼리 관련 질문 드립니다. [3] 코딩왕김탁구 2020.11.15 387
10662 일반 문자열을 utf-8 문자열로 변환 함수가 있을까요? [1] 강구다.. 2020.11.13 480
10661 SQL 복합 정렬 문제 도움좀 부탁드립니다. [1] 아들바보 2020.11.10 342





XE Login